createdAt,value
2022-12-16T00:00:45.634Z,0.30
2022-12-16T00:01:48.067Z,0.20
2022-12-16T00:02:51.853Z,0.10
2022-12-16T00:03:57.121Z,0.30
2022-12-16T00:04:59.930Z,0.30
2022-12-16T00:06:04.478Z,0.20
2022-12-16T00:07:06.972Z,0.20
2022-12-16T00:08:10.180Z,0.20
2022-12-16T00:09:14.874Z,0.20
2022-12-16T00:10:17.318Z,0.28
2022-12-16T00:11:20.132Z,0.30
2022-12-16T00:12:22.744Z,0.30
2022-12-16T00:13:27.750Z,0.20
2022-12-16T00:14:30.781Z,0.20
2022-12-16T00:15:37.639Z,0.40
2022-12-16T00:16:42.307Z,0.20
2022-12-16T00:17:46.279Z,0.20
2022-12-16T00:18:49.303Z,0.20
2022-12-16T00:19:54.194Z,0.15
2022-12-16T00:20:57.779Z,0.20
2022-12-16T00:22:00.499Z,0.20
2022-12-16T00:23:02.861Z,0.30
2022-12-16T00:24:07.338Z,0.30
2022-12-16T00:25:10.919Z,0.20
2022-12-16T00:26:14.085Z,0.20
2022-12-16T00:27:18.054Z,0.25
2022-12-16T00:28:23.759Z,0.20
2022-12-16T00:29:27.647Z,0.20
2022-12-16T00:30:30.423Z,0.20
2022-12-16T00:31:34.013Z,0.30
2022-12-16T00:32:36.815Z,0.20
2022-12-16T00:33:40.431Z,0.20
2022-12-16T00:34:42.776Z,0.20
2022-12-16T00:35:51.129Z,0.20
2022-12-16T00:36:55.636Z,0.10
2022-12-16T00:37:59.294Z,0.30
2022-12-16T00:39:01.817Z,0.20
2022-12-16T00:40:04.823Z,0.25
2022-12-16T00:41:08.102Z,0.25
2022-12-16T00:42:12.311Z,0.30
2022-12-16T00:43:15.281Z,0.20
2022-12-16T00:44:19.137Z,0.20
2022-12-16T00:45:22.515Z,0.25
2022-12-16T00:46:25.307Z,0.13
2022-12-16T00:47:28.432Z,0.20
2022-12-16T00:48:30.847Z,0.20
2022-12-16T00:49:33.252Z,0.20
2022-12-16T00:50:36.250Z,0.20
2022-12-16T00:51:40.602Z,0.20
2022-12-16T00:52:44.910Z,0.20
2022-12-16T00:53:47.703Z,0.20
2022-12-16T00:54:50.088Z,0.20
2022-12-16T00:56:23.547Z,0.20
2022-12-16T00:57:27.020Z,0.30
2022-12-16T00:58:29.454Z,0.20
2022-12-16T00:59:33.019Z,0.20
2022-12-16T01:00:35.915Z,0.30
2022-12-16T01:01:38.498Z,0.20
2022-12-16T01:02:42.160Z,0.20
2022-12-16T01:03:44.828Z,0.20
2022-12-16T01:04:48.886Z,0.10
2022-12-16T01:05:51.342Z,0.20
2022-12-16T01:06:54.878Z,0.20
2022-12-16T01:07:58.180Z,0.43
2022-12-16T01:09:01.953Z,0.20
2022-12-16T01:10:07.541Z,0.20
2022-12-16T01:11:11.835Z,0.30
2022-12-16T01:12:14.389Z,0.13
2022-12-16T01:13:16.782Z,0.25
2022-12-16T01:14:20.205Z,0.30
2022-12-16T01:15:23.971Z,0.20
2022-12-16T01:16:26.398Z,0.20
2022-12-16T01:17:28.968Z,0.20
2022-12-16T01:18:31.857Z,0.20
2022-12-16T01:19:34.326Z,0.20
2022-12-16T01:20:37.083Z,0.20
2022-12-16T01:21:39.574Z,0.10
2022-12-16T01:22:43.092Z,0.20
2022-12-16T01:23:47.938Z,0.20
2022-12-16T01:24:50.662Z,0.17
2022-12-16T01:25:57.221Z,0.25
2022-12-16T01:27:00.778Z,0.20
2022-12-16T01:28:03.269Z,0.20
2022-12-16T01:29:06.356Z,0.28
2022-12-16T01:30:10.074Z,0.20
2022-12-16T01:31:15.758Z,0.20
2022-12-16T01:32:18.510Z,0.30
2022-12-16T01:33:22.287Z,0.17
2022-12-16T01:34:26.177Z,0.22
2022-12-16T01:35:52.640Z,0.10
2022-12-16T01:36:52.415Z,0.20
2022-12-16T01:37:55.133Z,0.20
2022-12-16T01:38:57.646Z,0.20
2022-12-16T01:40:00.044Z,0.20
2022-12-16T01:41:03.809Z,0.10
2022-12-16T01:42:12.997Z,0.20
2022-12-16T01:43:26.146Z,0.20
2022-12-16T01:44:29.051Z,0.20
2022-12-16T01:45:36.919Z,0.25
2022-12-16T01:46:40.561Z,0.20
2022-12-16T01:47:42.974Z,0.20
2022-12-16T01:49:02.250Z,0.20
2022-12-16T01:50:11.942Z,0.20
2022-12-16T01:51:28.221Z,0.30
2022-12-16T01:52:34.568Z,0.28
2022-12-16T01:53:40.254Z,0.10
2022-12-16T01:54:53.270Z,0.20
2022-12-16T01:55:59.708Z,0.30
2022-12-16T01:57:06.833Z,0.20
2022-12-16T01:58:15.788Z,0.10
2022-12-16T01:59:22.886Z,0.20
2022-12-16T02:00:25.876Z,0.20
2022-12-16T02:01:30.231Z,0.20
2022-12-16T02:02:33.647Z,0.20
2022-12-16T02:03:37.570Z,0.20
2022-12-16T02:05:00.441Z,0.20
2022-12-16T02:06:05.769Z,0.30
2022-12-16T02:07:08.130Z,0.10
2022-12-16T02:08:14.613Z,0.20
2022-12-16T02:09:17.991Z,0.10
2022-12-16T02:10:25.674Z,0.20
2022-12-16T02:12:10.440Z,0.20
2022-12-16T02:13:34.215Z,0.20
2022-12-16T02:15:35.828Z,0.20
2022-12-16T02:16:49.786Z,0.20
2022-12-16T02:18:05.778Z,0.20
2022-12-16T02:19:14.987Z,0.20
2022-12-16T02:20:58.872Z,0.22
2022-12-16T02:22:34.010Z,0.20
2022-12-16T02:23:54.076Z,0.20
2022-12-16T02:25:21.405Z,0.20
2022-12-16T02:26:38.396Z,0.20
2022-12-16T02:28:02.612Z,0.10
2022-12-16T02:29:25.624Z,0.20
2022-12-16T02:30:31.818Z,0.20
2022-12-16T02:31:53.676Z,0.20
2022-12-16T02:33:06.803Z,0.20
2022-12-16T02:34:32.614Z,0.10
2022-12-16T02:36:13.879Z,0.28
2022-12-16T02:37:56.921Z,0.20
2022-12-16T02:39:13.603Z,0.20
2022-12-16T02:40:57.622Z,0.20
2022-12-16T02:42:25.799Z,0.20
2022-12-16T02:43:53.784Z,0.20
2022-12-16T02:45:11.167Z,0.20
2022-12-16T02:46:14.686Z,0.20
2022-12-16T02:47:17.126Z,0.20
2022-12-16T02:48:21.080Z,0.20
2022-12-16T02:49:23.430Z,0.20
2022-12-16T02:50:36.784Z,0.20
2022-12-16T02:51:39.407Z,0.17
2022-12-16T02:52:42.216Z,0.20
2022-12-16T02:53:48.416Z,0.20
2022-12-16T02:55:05.011Z,0.20
2022-12-16T02:56:20.954Z,0.20
2022-12-16T02:57:41.710Z,0.20
2022-12-16T02:59:25.541Z,0.20
2022-12-16T03:00:34.296Z,0.17
2022-12-16T03:01:51.795Z,0.25
2022-12-16T03:03:02.592Z,0.20
2022-12-16T03:04:12.854Z,0.20
2022-12-16T03:05:26.848Z,0.13
2022-12-16T03:06:31.881Z,0.20
2022-12-16T03:07:38.283Z,0.20
2022-12-16T03:08:45.534Z,0.20
2022-12-16T03:09:49.166Z,0.20
2022-12-16T03:10:57.343Z,0.20
2022-12-16T03:12:04.694Z,0.20
2022-12-16T03:13:10.858Z,0.20
2022-12-16T03:14:18.003Z,0.20
2022-12-16T03:15:27.538Z,0.20
2022-12-16T03:16:32.714Z,0.20
2022-12-16T03:17:37.162Z,0.20
2022-12-16T03:18:42.807Z,0.20
2022-12-16T03:19:53.037Z,0.20
2022-12-16T03:21:06.609Z,0.30
2022-12-16T03:22:17.168Z,0.20
2022-12-16T03:23:29.197Z,0.20
2022-12-16T03:24:33.570Z,0.10
2022-12-16T03:25:41.089Z,0.20
2022-12-16T03:26:56.003Z,0.20
2022-12-16T03:28:21.762Z,0.20
2022-12-16T03:29:56.230Z,0.20
2022-12-16T03:31:18.684Z,0.20
2022-12-16T03:32:39.211Z,0.22
2022-12-16T03:33:50.003Z,0.10
2022-12-16T03:35:04.958Z,0.20
2022-12-16T03:36:12.089Z,0.20
2022-12-16T03:37:14.852Z,0.30
2022-12-16T03:38:18.704Z,0.30
2022-12-16T03:39:23.218Z,0.20
2022-12-16T03:40:28.248Z,0.30
2022-12-16T03:41:33.834Z,0.20
2022-12-16T03:42:39.320Z,0.20
2022-12-16T03:43:42.824Z,0.20
2022-12-16T03:44:46.931Z,0.20
2022-12-16T03:45:53.892Z,0.20
2022-12-16T03:46:58.834Z,0.20
2022-12-16T03:48:01.338Z,0.15
2022-12-16T03:49:03.751Z,0.13
2022-12-16T03:50:08.903Z,0.20
2022-12-16T03:51:12.379Z,0.20
2022-12-16T03:52:15.473Z,0.20
2022-12-16T03:53:18.514Z,0.30
2022-12-16T03:54:21.453Z,0.20
2022-12-16T03:55:24.346Z,0.25
2022-12-16T03:56:26.821Z,0.30
2022-12-16T03:57:29.171Z,0.20
2022-12-16T03:58:31.608Z,0.30
2022-12-16T03:59:33.993Z,0.20
2022-12-16T04:00:39.365Z,0.10
2022-12-16T04:01:42.085Z,0.25
2022-12-16T04:02:46.806Z,0.20
2022-12-16T04:03:49.739Z,0.20
2022-12-16T04:05:12.127Z,0.20
2022-12-16T04:06:18.589Z,0.20
2022-12-16T04:07:21.405Z,0.20
2022-12-16T04:08:23.931Z,0.20
2022-12-16T04:09:26.412Z,0.10
2022-12-16T04:10:47.232Z,0.20
2022-12-16T04:12:28.300Z,0.20
2022-12-16T04:13:49.112Z,0.20
2022-12-16T04:15:11.556Z,0.20
2022-12-16T04:16:35.483Z,0.20
2022-12-16T04:17:56.979Z,0.20
2022-12-16T04:19:18.047Z,0.10
2022-12-16T04:20:47.320Z,0.10
2022-12-16T04:22:08.807Z,0.20
2022-12-16T04:23:31.259Z,0.20
2022-12-16T04:24:35.203Z,0.15
2022-12-16T04:25:39.152Z,0.28
2022-12-16T04:27:00.539Z,0.20
2022-12-16T04:28:03.333Z,0.20
2022-12-16T04:29:06.043Z,0.20
2022-12-16T04:30:21.965Z,0.30
2022-12-16T04:31:24.534Z,0.20
2022-12-16T04:32:27.437Z,0.20
2022-12-16T04:33:49.079Z,0.20
2022-12-16T04:34:54.978Z,0.30
2022-12-16T04:36:16.274Z,0.30
2022-12-16T04:37:37.802Z,0.20
2022-12-16T04:39:02.840Z,0.20
2022-12-16T04:40:24.525Z,0.20
2022-12-16T04:41:45.787Z,0.20
2022-12-16T04:43:07.189Z,0.20
2022-12-16T04:44:29.368Z,0.20
2022-12-16T04:45:51.338Z,0.20
2022-12-16T04:47:14.055Z,0.20
2022-12-16T04:48:35.446Z,0.20
2022-12-16T04:49:56.525Z,0.20
2022-12-16T04:51:17.704Z,0.30
2022-12-16T04:52:39.003Z,0.30
2022-12-16T04:54:00.118Z,0.20
2022-12-16T04:55:21.369Z,0.30
2022-12-16T04:56:42.375Z,0.20
2022-12-16T04:58:10.272Z,0.20
2022-12-16T04:59:31.382Z,0.20
2022-12-16T05:00:53.799Z,0.20
2022-12-16T05:02:16.797Z,0.28
2022-12-16T05:03:38.103Z,0.20
2022-12-16T05:04:59.540Z,0.28
2022-12-16T05:06:20.480Z,0.20
2022-12-16T05:07:41.628Z,0.28
2022-12-16T05:09:02.620Z,0.20
2022-12-16T05:10:24.584Z,0.20
2022-12-16T05:11:45.716Z,0.30
2022-12-16T05:13:06.719Z,0.20
2022-12-16T05:14:27.538Z,0.20
2022-12-16T05:15:48.538Z,0.20
2022-12-16T05:17:09.591Z,0.35
2022-12-16T05:18:33.110Z,0.20
2022-12-16T05:19:54.314Z,0.20
2022-12-16T05:21:17.462Z,0.20
2022-12-16T05:22:38.362Z,0.20
2022-12-16T05:23:59.900Z,0.30
2022-12-16T05:25:20.858Z,0.20
2022-12-16T05:26:42.130Z,0.20
2022-12-16T05:28:02.991Z,0.20
2022-12-16T05:29:23.918Z,0.30
2022-12-16T05:30:47.826Z,0.30
2022-12-16T05:32:09.503Z,0.30
2022-12-16T05:33:30.715Z,0.20
2022-12-16T05:34:52.534Z,0.32
2022-12-16T05:36:13.385Z,0.30
2022-12-16T05:37:35.394Z,0.30
2022-12-16T05:38:57.013Z,0.20
2022-12-16T05:40:19.926Z,0.30
2022-12-16T05:41:40.746Z,0.30
2022-12-16T05:43:05.869Z,0.30
2022-12-16T05:44:26.768Z,0.30
2022-12-16T05:45:47.928Z,0.30
2022-12-16T05:47:08.874Z,0.22
2022-12-16T05:48:30.346Z,0.28
2022-12-16T05:49:51.887Z,0.40
2022-12-16T05:51:12.963Z,0.52
2022-12-16T05:52:34.085Z,0.32
2022-12-16T05:53:54.749Z,0.30
2022-12-16T05:55:16.759Z,0.30
2022-12-16T05:56:38.021Z,0.30
2022-12-16T05:57:58.914Z,0.22
2022-12-16T05:59:19.855Z,0.20
2022-12-16T06:00:41.178Z,0.30
2022-12-16T06:02:03.790Z,0.30
2022-12-16T06:03:25.215Z,0.30
2022-12-16T06:04:46.936Z,0.35
2022-12-16T06:06:07.891Z,0.50
2022-12-16T06:07:28.796Z,0.30
2022-12-16T06:08:50.334Z,0.25
2022-12-16T06:10:11.547Z,0.40
2022-12-16T06:11:32.599Z,0.30
2022-12-16T06:12:53.788Z,0.30
2022-12-16T06:14:14.782Z,0.30
2022-12-16T06:15:36.388Z,0.40
2022-12-16T06:16:57.564Z,0.38
2022-12-16T06:18:18.481Z,0.40
2022-12-16T06:19:39.318Z,0.25
2022-12-16T06:21:00.103Z,0.40
2022-12-16T06:22:20.978Z,0.30
2022-12-16T06:23:43.763Z,0.40
2022-12-16T06:25:05.721Z,0.30
2022-12-16T06:26:26.591Z,0.30
2022-12-16T06:27:47.468Z,0.40
2022-12-16T06:29:08.684Z,0.40
2022-12-16T06:30:30.141Z,0.40
2022-12-16T06:31:51.623Z,0.30
2022-12-16T06:33:13.768Z,0.50
2022-12-16T06:34:35.450Z,0.40
2022-12-16T06:35:56.934Z,0.38
2022-12-16T06:37:18.208Z,0.40
2022-12-16T06:38:39.647Z,0.20
2022-12-16T06:40:00.727Z,0.38
2022-12-16T06:41:21.787Z,0.40
2022-12-16T06:42:43.131Z,0.38
2022-12-16T06:44:04.630Z,0.35
2022-12-16T06:45:30.090Z,0.30
2022-12-16T06:46:54.227Z,0.40
2022-12-16T06:48:18.759Z,0.35
2022-12-16T06:49:42.364Z,0.32
2022-12-16T06:51:04.156Z,0.30
2022-12-16T06:52:24.975Z,0.45
2022-12-16T06:53:45.783Z,0.38
2022-12-16T06:55:08.497Z,0.40
2022-12-16T06:56:29.358Z,0.40
2022-12-16T06:57:55.001Z,0.32
2022-12-16T06:59:16.738Z,0.43
2022-12-16T07:00:37.976Z,0.30
2022-12-16T07:02:00.140Z,0.30
2022-12-16T07:03:21.362Z,0.35
2022-12-16T07:04:42.539Z,0.40
2022-12-16T07:06:03.438Z,0.25
2022-12-16T07:07:24.386Z,0.30
2022-12-16T07:08:46.354Z,0.30
2022-12-16T07:10:07.815Z,0.30
2022-12-16T07:11:28.612Z,0.30
2022-12-16T07:12:50.087Z,0.30
2022-12-16T07:14:11.452Z,0.28
2022-12-16T07:15:34.536Z,0.30
2022-12-16T07:16:56.141Z,0.30
2022-12-16T07:18:17.076Z,0.30
2022-12-16T07:19:40.259Z,0.35
2022-12-16T07:21:01.254Z,0.25
2022-12-16T07:22:22.951Z,0.30
2022-12-16T07:23:44.007Z,0.30
2022-12-16T07:25:05.267Z,0.40
2022-12-16T07:26:27.583Z,0.40
2022-12-16T07:27:49.078Z,0.40
2022-12-16T07:29:10.683Z,0.40
2022-12-16T07:30:31.786Z,0.50
2022-12-16T07:31:52.940Z,0.30
2022-12-16T07:33:13.966Z,0.40
2022-12-16T07:34:40.338Z,0.30
2022-12-16T07:36:02.957Z,0.30
2022-12-16T07:37:23.824Z,0.40
2022-12-16T07:38:45.089Z,0.32
2022-12-16T07:40:06.137Z,0.20
2022-12-16T07:41:27.529Z,0.40
2022-12-16T07:42:48.792Z,0.30
2022-12-16T07:44:09.864Z,0.32
2022-12-16T07:45:31.820Z,0.35
2022-12-16T07:46:52.640Z,0.30
2022-12-16T07:48:13.607Z,0.30
2022-12-16T07:49:34.519Z,0.30
2022-12-16T07:50:55.814Z,0.30
2022-12-16T07:52:17.267Z,0.30
2022-12-16T07:53:40.260Z,0.40
2022-12-16T07:55:06.793Z,0.30
2022-12-16T07:56:27.950Z,0.30
2022-12-16T07:57:48.923Z,0.32
2022-12-16T07:59:10.437Z,0.30
2022-12-16T08:00:32.066Z,0.30
2022-12-16T08:01:53.831Z,0.30
2022-12-16T08:03:17.878Z,0.50
2022-12-16T08:04:38.861Z,0.40
2022-12-16T08:06:00.840Z,0.30
2022-12-16T08:07:22.128Z,0.30
2022-12-16T08:08:43.238Z,0.25
2022-12-16T08:10:04.175Z,0.30
2022-12-16T08:11:25.653Z,0.30
2022-12-16T08:12:47.848Z,0.30
2022-12-16T08:14:09.077Z,0.30
2022-12-16T08:15:29.910Z,0.30
2022-12-16T08:16:52.606Z,0.40
2022-12-16T08:18:14.584Z,0.30
2022-12-16T08:19:35.751Z,0.40
2022-12-16T08:20:59.718Z,0.50
2022-12-16T08:22:21.212Z,0.35
2022-12-16T08:23:43.387Z,0.30
2022-12-16T08:25:04.354Z,0.38
2022-12-16T08:26:26.365Z,0.30
2022-12-16T08:27:47.755Z,0.30
2022-12-16T08:29:35.041Z,0.30
2022-12-16T08:30:59.434Z,0.30
2022-12-16T08:32:21.908Z,0.32
2022-12-16T08:33:42.964Z,0.40
2022-12-16T08:35:05.832Z,0.30
2022-12-16T08:36:27.133Z,0.40
2022-12-16T08:37:48.895Z,0.30
2022-12-16T08:39:09.786Z,0.30
2022-12-16T08:40:36.074Z,0.30
2022-12-16T08:41:58.283Z,0.40
2022-12-16T08:43:19.455Z,0.38
2022-12-16T08:44:40.784Z,0.40
2022-12-16T08:46:03.419Z,0.52
2022-12-16T08:47:26.149Z,0.38
2022-12-16T08:48:47.760Z,0.30
2022-12-16T08:50:09.630Z,0.30
2022-12-16T08:51:32.033Z,0.30
2022-12-16T08:52:52.917Z,0.25
2022-12-16T08:54:14.768Z,0.20
2022-12-16T08:55:36.128Z,0.30
2022-12-16T08:56:57.005Z,0.30
2022-12-16T08:58:18.153Z,0.20
2022-12-16T08:59:39.361Z,0.38
2022-12-16T09:01:06.349Z,0.32
2022-12-16T09:02:48.429Z,0.30
2022-12-16T09:04:09.499Z,0.30
2022-12-16T09:05:30.583Z,0.20
2022-12-16T09:06:51.983Z,0.30
2022-12-16T09:08:21.636Z,0.35
2022-12-16T09:09:42.408Z,0.30
2022-12-16T09:11:03.505Z,0.30
2022-12-16T09:12:25.732Z,0.30
2022-12-16T09:13:46.865Z,0.30
2022-12-16T09:15:07.574Z,0.30
2022-12-16T09:16:28.883Z,0.30
2022-12-16T09:17:51.241Z,0.40
2022-12-16T09:19:12.273Z,0.40
2022-12-16T09:20:33.719Z,0.30
2022-12-16T09:21:56.029Z,0.30
2022-12-16T09:23:21.013Z,0.30
2022-12-16T09:24:42.229Z,0.30
2022-12-16T09:26:03.251Z,0.32
2022-12-16T09:27:24.100Z,0.35
2022-12-16T09:28:45.037Z,0.30
2022-12-16T09:30:06.760Z,0.30
2022-12-16T09:31:28.104Z,0.40
2022-12-16T09:32:49.808Z,0.35
2022-12-16T09:34:10.603Z,0.30
2022-12-16T09:35:32.013Z,0.30
2022-12-16T09:36:53.310Z,0.30
2022-12-16T09:38:16.529Z,0.20
2022-12-16T09:39:37.459Z,0.35
2022-12-16T09:41:00.503Z,0.30
2022-12-16T09:42:33.109Z,0.30
2022-12-16T09:44:27.376Z,0.30
2022-12-16T09:46:05.663Z,0.30
2022-12-16T09:48:06.756Z,0.50
2022-12-16T09:50:02.165Z,0.40
2022-12-16T09:51:25.937Z,0.30
2022-12-16T09:52:51.633Z,0.40
2022-12-16T09:54:15.196Z,0.30
2022-12-16T09:55:45.223Z,0.30
2022-12-16T09:57:06.908Z,0.30
2022-12-16T09:58:31.101Z,0.32
2022-12-16T09:59:58.215Z,0.30
2022-12-16T10:01:19.732Z,0.43
2022-12-16T10:03:03.377Z,0.30
2022-12-16T10:04:28.159Z,0.40
2022-12-16T10:06:03.643Z,0.35
2022-12-16T10:07:31.424Z,0.22
2022-12-16T10:09:05.469Z,0.40
2022-12-16T10:10:38.599Z,0.40
2022-12-16T10:12:26.635Z,0.30
2022-12-16T10:14:04.991Z,0.40
2022-12-16T10:15:42.713Z,0.30
2022-12-16T10:17:25.765Z,0.40
2022-12-16T10:19:06.144Z,0.30
2022-12-16T10:20:58.958Z,0.30
2022-12-16T10:23:00.764Z,0.30
2022-12-16T10:24:28.701Z,0.30
2022-12-16T10:26:13.480Z,0.30
2022-12-16T10:27:42.374Z,0.20
2022-12-16T10:29:10.521Z,0.40
2022-12-16T10:30:33.112Z,0.35
2022-12-16T10:31:56.327Z,0.30
2022-12-16T10:33:19.299Z,0.30
2022-12-16T10:34:47.838Z,0.30
2022-12-16T10:36:14.448Z,0.30
2022-12-16T10:37:56.089Z,0.30
2022-12-16T10:39:22.830Z,0.30
2022-12-16T10:40:49.282Z,0.50
2022-12-16T10:42:12.296Z,0.30
2022-12-16T10:44:01.196Z,0.40
2022-12-16T10:45:23.040Z,0.40
2022-12-16T10:46:51.282Z,0.30
2022-12-16T10:48:15.537Z,0.40
2022-12-16T10:49:36.928Z,0.28
2022-12-16T10:50:57.987Z,0.30
2022-12-16T10:52:20.058Z,0.20
2022-12-16T10:53:45.620Z,0.35
2022-12-16T10:55:31.162Z,0.30
2022-12-16T10:57:17.544Z,0.30
2022-12-16T10:59:03.338Z,0.30
2022-12-16T11:00:35.648Z,0.30
2022-12-16T11:01:58.521Z,0.30
2022-12-16T11:03:51.015Z,0.20
2022-12-16T11:05:12.936Z,0.30
2022-12-16T11:06:40.910Z,0.30
2022-12-16T11:08:02.030Z,0.30
2022-12-16T11:09:46.643Z,0.20
2022-12-16T11:11:07.445Z,0.30
2022-12-16T11:12:47.168Z,0.22
2022-12-16T11:14:08.862Z,0.30
2022-12-16T11:15:50.539Z,0.30
2022-12-16T11:17:33.109Z,0.30
2022-12-16T11:19:08.603Z,0.40
2022-12-16T11:20:29.447Z,0.30
2022-12-16T11:21:50.894Z,0.32
2022-12-16T11:23:34.132Z,0.20
2022-12-16T11:24:55.749Z,0.32
2022-12-16T11:26:35.989Z,0.30
2022-12-16T11:27:58.052Z,0.25
2022-12-16T11:31:14.913Z,0.40
2022-12-16T11:32:41.053Z,0.45
2022-12-16T11:34:03.811Z,0.30
2022-12-16T11:35:34.545Z,0.40
2022-12-16T11:36:58.323Z,0.40
2022-12-16T11:38:21.964Z,0.30
2022-12-16T11:39:46.086Z,0.30
2022-12-16T11:41:09.208Z,0.30
2022-12-16T11:42:47.419Z,0.30
2022-12-16T11:44:10.756Z,0.30
2022-12-16T11:45:36.004Z,0.20
2022-12-16T11:46:57.682Z,0.30
2022-12-16T11:48:53.338Z,0.30
2022-12-16T11:50:17.211Z,0.32
2022-12-16T11:51:43.223Z,0.30
2022-12-16T11:54:46.935Z,0.50
2022-12-16T11:56:16.003Z,0.20
2022-12-16T11:58:01.927Z,0.40
2022-12-16T11:59:48.943Z,0.30
2022-12-16T12:01:38.828Z,0.43
2022-12-16T12:03:17.730Z,0.30
2022-12-16T12:04:39.907Z,0.30
2022-12-16T12:06:24.239Z,0.40
2022-12-16T12:08:00.339Z,0.43
2022-12-16T12:09:33.730Z,0.40
2022-12-16T12:12:38.026Z,0.40
2022-12-16T12:14:10.577Z,0.40
2022-12-16T12:15:31.786Z,0.38
2022-12-16T12:17:05.265Z,0.50
2022-12-16T12:18:59.055Z,0.40
2022-12-16T12:20:35.424Z,0.70
2022-12-16T12:22:31.512Z,0.40
2022-12-16T12:23:59.764Z,0.50
2022-12-16T12:25:47.687Z,0.45
2022-12-16T12:27:45.737Z,0.30
2022-12-16T12:29:34.883Z,0.50
2022-12-16T12:31:30.738Z,0.35
2022-12-16T12:33:13.584Z,0.60
2022-12-16T12:34:43.095Z,0.40
2022-12-16T12:36:19.619Z,0.50
2022-12-16T12:38:04.300Z,0.50
2022-12-16T12:39:25.051Z,0.30
2022-12-16T12:41:04.098Z,0.70
2022-12-16T12:42:49.521Z,0.50
2022-12-16T12:44:54.344Z,0.50
2022-12-16T12:46:16.864Z,0.38
2022-12-16T12:47:38.895Z,0.50
2022-12-16T12:49:13.267Z,0.38
2022-12-16T12:50:40.548Z,0.40
2022-12-16T12:52:32.142Z,0.40
2022-12-16T12:54:07.293Z,0.40
2022-12-16T12:55:41.935Z,0.30
2022-12-16T12:57:08.832Z,0.50
2022-12-16T12:58:36.122Z,0.55
2022-12-16T13:00:38.705Z,0.45
2022-12-16T13:02:01.892Z,0.40
2022-12-16T13:04:48.949Z,0.38
2022-12-16T13:07:31.575Z,0.40
2022-12-16T13:09:07.844Z,0.47
2022-12-16T13:10:43.976Z,0.40
2022-12-16T13:12:26.685Z,0.32
2022-12-16T13:13:54.070Z,0.40
2022-12-16T13:15:26.431Z,0.50
2022-12-16T13:17:02.613Z,0.30
2022-12-16T13:18:23.769Z,0.30
2022-12-16T13:19:47.634Z,0.45
2022-12-16T13:21:16.743Z,0.40
2022-12-16T13:22:52.427Z,0.43
2022-12-16T13:24:14.130Z,0.30
2022-12-16T13:26:10.242Z,0.40
2022-12-16T13:27:35.615Z,0.32
2022-12-16T13:29:19.232Z,0.40
2022-12-16T13:30:43.026Z,0.47
2022-12-16T13:32:22.769Z,0.50
2022-12-16T13:33:46.477Z,0.40
2022-12-16T13:35:20.251Z,0.43
2022-12-16T13:38:38.734Z,0.40
2022-12-16T13:40:01.730Z,0.40
2022-12-16T13:41:25.686Z,0.35
2022-12-16T13:43:10.968Z,0.40
2022-12-16T13:45:00.928Z,0.30
2022-12-16T13:46:25.161Z,0.20
2022-12-16T13:47:53.603Z,0.30
2022-12-16T13:49:53.431Z,0.30
2022-12-16T13:51:18.848Z,0.30
2022-12-16T13:52:59.300Z,0.40
2022-12-16T13:54:28.781Z,0.40
2022-12-16T13:56:01.352Z,0.45
2022-12-16T13:57:23.995Z,0.40
2022-12-16T13:58:58.622Z,0.30
2022-12-16T14:00:21.512Z,0.40
2022-12-16T14:02:02.097Z,0.40
2022-12-16T14:03:30.301Z,0.30
2022-12-16T14:04:58.101Z,0.30
2022-12-16T14:06:22.787Z,0.40
2022-12-16T14:07:49.410Z,0.30
2022-12-16T14:09:10.425Z,0.40
2022-12-16T14:10:52.387Z,0.38
2022-12-16T14:12:37.155Z,0.40
2022-12-16T14:14:06.814Z,0.30
2022-12-16T14:16:00.637Z,0.40
2022-12-16T14:17:24.772Z,0.50
2022-12-16T14:19:03.140Z,0.30
2022-12-16T14:20:47.010Z,0.47
2022-12-16T14:22:35.396Z,0.30
2022-12-16T14:24:01.960Z,0.45
2022-12-16T14:25:42.286Z,0.30
2022-12-16T14:27:04.221Z,0.73
2022-12-16T14:28:48.762Z,0.50
2022-12-16T14:30:10.142Z,0.40
2022-12-16T14:31:48.987Z,0.30
2022-12-16T14:33:13.219Z,0.40
2022-12-16T14:34:37.992Z,0.32
2022-12-16T14:36:08.514Z,0.60
2022-12-16T14:37:51.115Z,0.57
2022-12-16T14:39:12.262Z,0.60
2022-12-16T14:40:44.601Z,0.60
2022-12-16T14:42:09.384Z,0.80
2022-12-16T14:43:48.320Z,0.60
2022-12-16T14:45:09.300Z,0.70
2022-12-16T14:46:45.605Z,0.57
2022-12-16T14:48:06.487Z,0.63
2022-12-16T14:49:39.603Z,0.75
2022-12-16T14:51:00.700Z,0.80
2022-12-16T14:52:21.567Z,0.77
2022-12-16T14:53:49.305Z,0.95
2022-12-16T14:55:10.286Z,1.10
2022-12-16T14:56:41.877Z,1.10
2022-12-16T14:58:02.813Z,1.15
2022-12-16T14:59:34.122Z,1.20
2022-12-16T15:00:58.314Z,1.00
2022-12-16T15:02:39.432Z,1.30
2022-12-16T15:04:04.885Z,1.33
2022-12-16T15:05:26.343Z,1.17
2022-12-16T15:06:58.815Z,1.08
2022-12-16T15:08:19.712Z,1.20
2022-12-16T15:09:49.593Z,1.20
2022-12-16T15:11:10.462Z,1.02
2022-12-16T15:12:47.804Z,0.82
2022-12-16T15:14:14.828Z,1.02
2022-12-16T15:15:45.371Z,1.20
2022-12-16T15:17:08.974Z,1.00
2022-12-16T15:18:38.031Z,0.93
2022-12-16T15:20:07.478Z,1.08
2022-12-16T15:21:28.582Z,1.00
2022-12-16T15:23:10.003Z,0.75
2022-12-16T15:24:37.025Z,0.93
2022-12-16T15:26:03.804Z,0.93
2022-12-16T15:27:40.135Z,0.77
2022-12-16T15:29:02.506Z,1.10
2022-12-16T15:30:55.819Z,1.00
2022-12-16T15:32:16.969Z,1.10
2022-12-16T15:33:46.676Z,0.93
2022-12-16T15:35:08.017Z,0.80
2022-12-16T15:36:44.112Z,1.10
2022-12-16T15:38:07.687Z,0.70
2022-12-16T15:39:40.792Z,0.70
2022-12-16T15:41:20.048Z,1.00
2022-12-16T15:42:45.160Z,0.88
2022-12-16T15:44:06.725Z,1.05
2022-12-16T15:45:37.888Z,0.95
2022-12-16T15:47:05.833Z,1.02
2022-12-16T15:48:39.887Z,0.80
2022-12-16T15:50:05.996Z,0.70
2022-12-16T15:51:49.139Z,0.82
2022-12-16T15:53:11.162Z,0.82
2022-12-16T15:54:43.061Z,0.98
2022-12-16T15:56:14.783Z,0.80
2022-12-16T15:57:51.538Z,0.70
2022-12-16T15:59:42.400Z,0.80
2022-12-16T16:01:18.954Z,0.60
2022-12-16T16:02:46.548Z,0.98
2022-12-16T16:04:10.608Z,0.80
2022-12-16T16:05:42.453Z,1.08
2022-12-16T16:07:09.687Z,0.77
2022-12-16T16:08:31.105Z,0.77
2022-12-16T16:09:54.763Z,0.77
2022-12-16T16:11:15.914Z,0.93
2022-12-16T16:12:38.714Z,0.70
2022-12-16T16:14:06.104Z,0.80
2022-12-16T16:15:33.615Z,1.00
2022-12-16T16:16:54.679Z,0.88
2022-12-16T16:18:18.893Z,0.90
2022-12-16T16:19:44.819Z,0.80
2022-12-16T16:21:06.662Z,0.80
2022-12-16T16:22:32.632Z,0.70
2022-12-16T16:23:54.101Z,0.90
2022-12-16T16:25:15.211Z,0.90
2022-12-16T16:26:39.694Z,0.70
2022-12-16T16:28:00.956Z,1.10
2022-12-16T16:29:23.864Z,0.70
2022-12-16T16:30:45.097Z,0.60
2022-12-16T16:32:06.041Z,0.90
2022-12-16T16:33:27.739Z,0.70
2022-12-16T16:34:48.654Z,0.98
2022-12-16T16:36:11.439Z,0.77
2022-12-16T16:37:35.298Z,0.70
2022-12-16T16:38:56.903Z,0.90
2022-12-16T16:40:33.690Z,0.88
2022-12-16T16:43:15.381Z,0.70
2022-12-16T16:44:37.264Z,0.80
2022-12-16T16:45:58.136Z,0.73
2022-12-16T16:47:19.869Z,0.73
2022-12-16T16:48:40.966Z,0.57
2022-12-16T16:50:05.460Z,0.80
2022-12-16T16:51:26.381Z,0.60
2022-12-16T16:52:51.000Z,0.80
2022-12-16T16:54:12.139Z,0.80
2022-12-16T16:55:36.451Z,0.75
2022-12-16T16:56:58.379Z,1.00
2022-12-16T16:58:19.643Z,0.60
2022-12-16T16:59:42.446Z,0.80
2022-12-16T17:01:04.068Z,1.02
2022-12-16T17:02:45.363Z,0.70
2022-12-16T17:04:06.284Z,0.70
2022-12-16T17:05:31.888Z,0.70
2022-12-16T17:07:05.116Z,0.70
2022-12-16T17:08:26.078Z,0.70
2022-12-16T17:09:47.565Z,0.73
2022-12-16T17:11:10.943Z,0.70
2022-12-16T17:12:42.413Z,0.93
2022-12-16T17:14:03.247Z,0.80
2022-12-16T17:15:48.305Z,0.80
2022-12-16T17:17:10.715Z,0.68
2022-12-16T17:18:31.898Z,1.02
2022-12-16T17:19:52.682Z,1.08
2022-12-16T17:21:14.069Z,0.75
2022-12-16T17:22:35.259Z,0.93
2022-12-16T17:23:58.574Z,0.65
2022-12-16T17:25:19.632Z,0.80
2022-12-16T17:26:41.571Z,1.00
2022-12-16T17:28:04.223Z,0.70
2022-12-16T17:29:25.321Z,0.90
2022-12-16T17:30:47.873Z,0.90
2022-12-16T17:32:08.903Z,0.82
2022-12-16T17:33:30.071Z,0.95
2022-12-16T17:34:51.740Z,0.70
2022-12-16T17:36:14.255Z,0.80
2022-12-16T17:37:50.614Z,0.88
2022-12-16T17:39:11.664Z,0.90
2022-12-16T17:40:32.750Z,0.80
2022-12-16T17:41:53.965Z,1.20
2022-12-16T17:43:14.793Z,0.90
2022-12-16T17:44:36.331Z,0.93
2022-12-16T17:45:57.192Z,0.70
2022-12-16T17:47:18.204Z,0.65
2022-12-16T17:48:45.295Z,1.00
2022-12-16T17:50:06.462Z,0.93
2022-12-16T17:51:28.628Z,0.70
2022-12-16T17:52:49.866Z,0.70
2022-12-16T17:54:19.665Z,0.65
2022-12-16T17:55:43.107Z,0.85
2022-12-16T17:57:05.272Z,0.80
2022-12-16T17:58:26.374Z,0.93
2022-12-16T17:59:51.777Z,0.75
2022-12-16T18:01:25.276Z,0.80
2022-12-16T18:02:47.622Z,0.93
2022-12-16T18:04:08.989Z,1.00
2022-12-16T18:05:37.704Z,0.80
2022-12-16T18:07:02.260Z,1.00
2022-12-16T18:08:23.651Z,0.80
2022-12-16T18:09:44.945Z,0.70
2022-12-16T18:11:14.003Z,0.70
2022-12-16T18:12:35.104Z,1.00
2022-12-16T18:13:56.274Z,0.80
2022-12-16T18:15:17.119Z,0.98
2022-12-16T18:16:38.034Z,0.80